createdAt,value
2023-05-14T00:00:03.622Z,24.05
2023-05-14T00:02:53.801Z,24.04
2023-05-14T00:05:20.635Z,24.03
2023-05-14T00:07:47.240Z,24.03
2023-05-14T00:10:14.234Z,24.03
2023-05-14T00:12:40.810Z,24.03
2023-05-14T00:15:08.013Z,24.02
2023-05-14T00:17:34.589Z,24.02
2023-05-14T00:20:01.268Z,24.02
2023-05-14T00:22:27.785Z,24.02
2023-05-14T00:24:54.862Z,24.01
2023-05-14T00:27:21.510Z,24.01
2023-05-14T00:29:48.130Z,24.01
2023-05-14T00:32:14.853Z,24.01
2023-05-14T00:34:41.487Z,24.00
2023-05-14T00:37:08.111Z,24.00
2023-05-14T00:39:35.009Z,23.99
2023-05-14T00:42:01.649Z,23.98
2023-05-14T00:44:28.607Z,23.98
2023-05-14T00:46:55.253Z,23.98
2023-05-14T00:49:22.659Z,23.97
2023-05-14T00:51:49.522Z,23.97
2023-05-14T00:54:16.578Z,23.97
2023-05-14T00:56:46.500Z,23.97
2023-05-14T00:59:13.370Z,23.96
2023-05-14T01:01:40.068Z,23.95
2023-05-14T01:04:07.187Z,23.95
2023-05-14T01:06:44.374Z,23.96
2023-05-14T01:09:50.480Z,23.94
2023-05-14T01:12:34.171Z,23.94
2023-05-14T01:15:05.966Z,23.93
2023-05-14T01:17:33.358Z,23.91
2023-05-14T01:20:00.311Z,23.91
2023-05-14T01:22:27.340Z,23.91
2023-05-14T01:24:53.876Z,23.91
2023-05-14T01:27:43.214Z,23.91
2023-05-14T01:30:27.160Z,23.90
2023-05-14T01:32:55.326Z,23.89
2023-05-14T01:35:27.208Z,23.88
2023-05-14T01:37:58.016Z,23.88
2023-05-14T01:40:25.336Z,23.88
2023-05-14T01:42:52.486Z,23.88
2023-05-14T01:45:22.711Z,23.88
2023-05-14T01:47:50.673Z,23.87
2023-05-14T01:50:17.614Z,23.87
2023-05-14T01:52:44.261Z,23.86
2023-05-14T01:55:11.009Z,23.87
2023-05-14T01:57:37.701Z,23.86
2023-05-14T02:00:05.346Z,23.85
2023-05-14T02:02:40.443Z,23.85
2023-05-14T02:05:08.085Z,23.85
2023-05-14T02:07:34.670Z,23.84
2023-05-14T02:10:01.879Z,23.84
2023-05-14T02:12:28.544Z,23.84
2023-05-14T02:14:55.313Z,23.84
2023-05-14T02:17:23.654Z,23.84
2023-05-14T02:19:50.679Z,23.84
2023-05-14T02:22:17.404Z,23.83
2023-05-14T02:24:44.228Z,23.83
2023-05-14T02:27:12.528Z,23.83
2023-05-14T02:29:39.370Z,23.82
2023-05-14T02:32:06.322Z,23.81
2023-05-14T02:34:33.837Z,23.81
2023-05-14T02:37:00.601Z,23.81
2023-05-14T02:39:27.410Z,23.81
2023-05-14T02:41:54.356Z,23.81
2023-05-14T02:44:20.901Z,23.80
2023-05-14T02:46:47.661Z,23.80
2023-05-14T02:49:14.370Z,23.80
2023-05-14T02:51:40.911Z,23.79
2023-05-14T02:54:07.648Z,23.79
2023-05-14T02:56:34.341Z,23.78
2023-05-14T02:59:01.047Z,23.78
2023-05-14T03:01:28.514Z,23.78
2023-05-14T03:03:55.728Z,23.78
2023-05-14T03:06:22.416Z,23.77
2023-05-14T03:08:49.257Z,23.77
2023-05-14T03:11:15.995Z,23.77
2023-05-14T03:13:42.619Z,23.77
2023-05-14T03:16:09.271Z,23.77
2023-05-14T03:18:36.369Z,23.78
2023-05-14T03:21:03.431Z,23.78
2023-05-14T03:23:31.553Z,23.78
2023-05-14T03:25:58.238Z,23.77
2023-05-14T03:28:25.416Z,23.78
2023-05-14T03:30:52.305Z,23.77
2023-05-14T03:33:19.143Z,23.78
2023-05-14T03:35:45.740Z,23.78
2023-05-14T03:38:12.525Z,23.78
2023-05-14T03:40:39.036Z,23.78
2023-05-14T03:43:05.646Z,23.78
2023-05-14T03:45:32.729Z,23.78
2023-05-14T03:47:59.335Z,23.78
2023-05-14T03:50:26.558Z,23.78
2023-05-14T03:52:54.373Z,23.79
2023-05-14T03:55:21.133Z,23.79
2023-05-14T03:57:48.053Z,23.79
2023-05-14T04:00:15.047Z,23.79
2023-05-14T04:02:44.600Z,23.78
2023-05-14T04:05:11.375Z,23.78
2023-05-14T04:07:38.065Z,23.78
2023-05-14T04:10:05.698Z,23.78
2023-05-14T04:12:34.726Z,23.77
2023-05-14T04:15:01.571Z,23.78
2023-05-14T04:17:28.624Z,23.77
2023-05-14T04:19:56.776Z,23.78
2023-05-14T04:22:24.176Z,23.78
2023-05-14T04:24:51.155Z,23.80
2023-05-14T04:27:20.990Z,23.80
2023-05-14T04:29:48.323Z,23.81
2023-05-14T04:32:15.090Z,23.81
2023-05-14T04:34:41.905Z,23.82
2023-05-14T04:37:08.657Z,23.83
2023-05-14T04:39:35.295Z,23.83
2023-05-14T04:42:01.909Z,23.84
2023-05-14T04:44:28.446Z,23.84
2023-05-14T04:46:55.301Z,23.84
2023-05-14T04:49:21.816Z,23.85
2023-05-14T04:51:48.873Z,23.84
2023-05-14T04:54:15.423Z,23.84
2023-05-14T04:56:42.050Z,23.84
2023-05-14T04:59:08.720Z,23.84
2023-05-14T05:01:35.635Z,23.84
2023-05-14T05:04:02.406Z,23.84
2023-05-14T05:06:29.375Z,23.84
2023-05-14T05:08:56.039Z,23.84
2023-05-14T05:11:22.578Z,23.84
2023-05-14T05:13:49.766Z,23.84
2023-05-14T05:16:16.428Z,23.86
2023-05-14T05:18:44.023Z,23.88
2023-05-14T05:21:10.727Z,23.89
2023-05-14T05:23:37.329Z,23.90
2023-05-14T05:26:04.359Z,23.92
2023-05-14T05:28:31.018Z,23.93
2023-05-14T05:30:57.993Z,23.94
2023-05-14T05:33:25.041Z,23.96
2023-05-14T05:35:51.809Z,23.97
2023-05-14T05:38:18.358Z,23.99
2023-05-14T05:40:44.956Z,24.01
2023-05-14T05:43:13.286Z,24.02
2023-05-14T05:45:40.938Z,24.03
2023-05-14T05:48:07.830Z,24.04
2023-05-14T05:50:34.427Z,24.05
2023-05-14T05:53:01.328Z,24.06
2023-05-14T05:55:28.448Z,24.05
2023-05-14T05:57:55.247Z,24.07
2023-05-14T06:00:22.595Z,24.08
2023-05-14T06:02:49.438Z,24.08
2023-05-14T06:05:16.133Z,24.09
2023-05-14T06:07:42.854Z,24.09
2023-05-14T06:10:09.662Z,24.10
2023-05-14T06:12:36.402Z,24.10
2023-05-14T06:15:03.272Z,24.08
2023-05-14T06:17:30.090Z,24.08
2023-05-14T06:19:56.741Z,24.09
2023-05-14T06:22:23.580Z,24.09
2023-05-14T06:24:50.186Z,24.09
2023-05-14T06:27:16.704Z,24.09
2023-05-14T06:29:43.223Z,24.10
2023-05-14T06:32:09.960Z,24.11
2023-05-14T06:34:36.756Z,24.13
2023-05-14T06:37:03.508Z,24.14
2023-05-14T06:39:30.270Z,24.16
2023-05-14T06:41:57.182Z,24.18
2023-05-14T06:44:23.799Z,24.19
2023-05-14T06:46:50.445Z,24.21
2023-05-14T06:49:17.613Z,24.23
2023-05-14T06:51:44.388Z,24.24
2023-05-14T06:54:11.275Z,24.25
2023-05-14T06:56:37.919Z,24.28
2023-05-14T06:59:04.587Z,24.29
2023-05-14T07:01:31.211Z,24.28
2023-05-14T07:03:57.900Z,24.29
2023-05-14T07:06:24.434Z,24.29
2023-05-14T07:08:51.140Z,24.29
2023-05-14T07:11:17.999Z,24.30
2023-05-14T07:13:44.749Z,24.30
2023-05-14T07:16:11.577Z,24.32
2023-05-14T07:18:38.246Z,24.33
2023-05-14T07:21:06.019Z,24.34
2023-05-14T07:23:35.423Z,24.34
2023-05-14T07:26:02.377Z,24.36
2023-05-14T07:28:28.888Z,24.36
2023-05-14T07:30:55.545Z,24.37
2023-05-14T07:33:22.417Z,24.38
2023-05-14T07:35:48.946Z,24.38
2023-05-14T07:38:15.918Z,24.38
2023-05-14T07:40:42.924Z,24.39
2023-05-14T07:43:09.747Z,24.40
2023-05-14T07:45:37.523Z,24.41
2023-05-14T07:48:04.706Z,24.41
2023-05-14T07:50:31.461Z,24.40
2023-05-14T07:52:58.214Z,24.40
2023-05-14T07:55:25.378Z,24.40
2023-05-14T07:57:52.025Z,24.40
2023-05-14T08:00:19.079Z,24.41
2023-05-14T08:02:45.826Z,24.43
2023-05-14T08:05:13.181Z,24.42
2023-05-14T08:07:39.880Z,24.43
2023-05-14T08:10:07.480Z,24.46
2023-05-14T08:12:34.312Z,24.48
2023-05-14T08:15:01.413Z,24.50
2023-05-14T08:17:28.067Z,24.51
2023-05-14T08:19:54.714Z,24.52
2023-05-14T08:22:21.815Z,24.53
2023-05-14T08:24:48.699Z,24.56
2023-05-14T08:27:16.146Z,24.56
2023-05-14T08:29:42.807Z,24.58
2023-05-14T08:32:19.773Z,24.59
2023-05-14T08:34:49.074Z,24.60
2023-05-14T08:37:15.665Z,24.61
2023-05-14T08:39:43.206Z,24.62
2023-05-14T08:42:11.365Z,24.63
2023-05-14T08:44:49.340Z,24.64
2023-05-14T08:47:17.529Z,24.64
2023-05-14T08:49:46.183Z,24.65
2023-05-14T08:52:12.982Z,24.66
2023-05-14T08:54:39.903Z,24.67
2023-05-14T08:57:08.850Z,24.68
2023-05-14T08:59:35.573Z,24.69
2023-05-14T09:02:02.644Z,24.69
2023-05-14T09:04:29.856Z,24.70
2023-05-14T09:06:56.532Z,24.71
2023-05-14T09:09:23.080Z,24.72
2023-05-14T09:11:53.713Z,24.72
2023-05-14T09:14:21.242Z,24.73
2023-05-14T09:16:49.094Z,24.72
2023-05-14T09:19:18.399Z,24.72
2023-05-14T09:21:45.409Z,24.73
2023-05-14T09:24:22.707Z,24.74
2023-05-14T09:26:53.524Z,24.75
2023-05-14T09:29:20.258Z,24.75
2023-05-14T09:31:47.491Z,24.75
2023-05-14T09:34:26.190Z,24.76
2023-05-14T09:37:00.854Z,24.76
2023-05-14T09:39:27.598Z,24.76
2023-05-14T09:41:55.210Z,24.76
2023-05-14T09:44:22.022Z,24.77
2023-05-14T09:46:48.802Z,24.78
2023-05-14T09:49:15.529Z,24.78
2023-05-14T09:51:42.140Z,24.78
2023-05-14T09:54:09.155Z,24.79
2023-05-14T09:56:36.261Z,24.80
2023-05-14T09:59:03.368Z,24.80
2023-05-14T10:01:30.229Z,24.80
2023-05-14T10:03:57.173Z,24.80
2023-05-14T10:06:35.882Z,24.80
2023-05-14T10:09:05.296Z,24.81
2023-05-14T10:11:33.245Z,24.80
2023-05-14T10:14:04.036Z,24.81
2023-05-14T10:16:33.486Z,24.81
2023-05-14T10:19:05.771Z,24.82
2023-05-14T10:21:33.949Z,24.82
2023-05-14T10:24:00.629Z,24.82
2023-05-14T10:26:27.566Z,24.82
2023-05-14T10:28:55.331Z,24.81
2023-05-14T10:31:53.770Z,24.81
2023-05-14T10:34:37.742Z,24.79
2023-05-14T10:37:05.913Z,24.78
2023-05-14T10:39:51.206Z,24.76
2023-05-14T10:42:18.648Z,24.75
2023-05-14T10:44:56.536Z,24.74
2023-05-14T10:47:23.489Z,24.74
2023-05-14T10:49:52.702Z,24.74
2023-05-14T10:52:19.706Z,24.74
2023-05-14T10:54:53.911Z,24.74
2023-05-14T10:57:21.543Z,24.75
2023-05-14T10:59:55.390Z,24.76
2023-05-14T11:02:29.135Z,24.78
2023-05-14T11:04:57.346Z,24.78
2023-05-14T11:07:35.091Z,24.80
2023-05-14T11:10:15.308Z,24.82
2023-05-14T11:12:43.721Z,24.85
2023-05-14T11:15:11.613Z,24.86
2023-05-14T11:17:40.359Z,24.88
2023-05-14T11:20:07.663Z,24.90
2023-05-14T11:22:34.999Z,24.93
2023-05-14T11:25:01.661Z,24.94
2023-05-14T11:27:28.920Z,24.97
2023-05-14T11:29:56.097Z,25.01
2023-05-14T11:32:22.941Z,25.05
2023-05-14T11:34:50.712Z,25.07
2023-05-14T11:37:17.690Z,25.10
2023-05-14T11:39:51.897Z,25.12
2023-05-14T11:42:18.860Z,25.15
2023-05-14T11:44:49.883Z,25.17
2023-05-14T11:47:17.721Z,25.19
2023-05-14T11:49:44.938Z,25.23
2023-05-14T11:52:15.476Z,25.26
2023-05-14T11:54:42.755Z,25.30
2023-05-14T11:57:11.377Z,25.35
2023-05-14T11:59:38.122Z,25.39
2023-05-14T12:02:09.653Z,25.45
2023-05-14T12:04:36.371Z,25.51
2023-05-14T12:07:08.434Z,25.57
2023-05-14T12:09:50.838Z,25.64
2023-05-14T12:12:21.131Z,25.71
2023-05-14T12:14:48.168Z,25.80
2023-05-14T12:17:18.811Z,25.88
2023-05-14T12:19:47.553Z,25.92
2023-05-14T12:22:16.568Z,25.90
2023-05-14T12:24:43.755Z,25.87
2023-05-14T12:27:11.171Z,25.83
2023-05-14T12:29:40.584Z,25.81
2023-05-14T12:32:08.680Z,25.84
2023-05-14T12:34:37.354Z,25.90
2023-05-14T12:37:05.679Z,25.97
2023-05-14T12:39:32.997Z,26.00
2023-05-14T12:41:59.846Z,25.98
2023-05-14T12:44:26.595Z,25.96
2023-05-14T12:46:53.389Z,25.92
2023-05-14T12:49:20.039Z,25.89
2023-05-14T12:51:46.529Z,25.85
2023-05-14T12:54:15.126Z,25.81
2023-05-14T12:56:42.042Z,25.76
2023-05-14T12:59:08.990Z,25.72
2023-05-14T13:01:37.591Z,25.68
2023-05-14T13:04:04.984Z,25.66
2023-05-14T13:06:32.182Z,25.62
2023-05-14T13:09:01.977Z,25.60
2023-05-14T13:11:31.051Z,25.59
2023-05-14T13:14:00.850Z,25.59
2023-05-14T13:16:27.790Z,25.60
2023-05-14T13:18:54.790Z,25.59
2023-05-14T13:21:21.563Z,25.61
2023-05-14T13:23:48.377Z,25.67
2023-05-14T13:26:15.370Z,25.69
2023-05-14T13:28:42.608Z,25.66
2023-05-14T13:31:10.732Z,25.62
2023-05-14T13:33:40.297Z,25.58
2023-05-14T13:36:07.660Z,25.55
2023-05-14T13:38:34.374Z,25.54
2023-05-14T13:41:04.038Z,25.54
2023-05-14T13:43:31.294Z,25.56
2023-05-14T13:45:58.532Z,25.67
2023-05-14T13:48:25.427Z,25.79
2023-05-14T13:50:52.242Z,25.95
2023-05-14T13:53:22.776Z,26.10
2023-05-14T13:55:49.774Z,26.26
2023-05-14T13:58:16.434Z,26.37
2023-05-14T14:00:43.101Z,26.48
2023-05-14T14:03:09.790Z,26.60
2023-05-14T14:05:36.572Z,26.72
2023-05-14T14:08:17.882Z,26.81
2023-05-14T14:10:50.011Z,26.82
2023-05-14T14:13:16.887Z,26.72
2023-05-14T14:15:43.834Z,26.62
2023-05-14T14:18:11.125Z,26.53
2023-05-14T14:20:37.735Z,26.44
2023-05-14T14:23:04.700Z,26.35
2023-05-14T14:25:31.303Z,26.27
2023-05-14T14:27:58.301Z,26.20
2023-05-14T14:30:25.006Z,26.14
2023-05-14T14:32:51.691Z,26.12
2023-05-14T14:35:18.954Z,26.10
2023-05-14T14:37:48.505Z,26.08
2023-05-14T14:40:16.073Z,26.06
2023-05-14T14:42:43.153Z,26.04
2023-05-14T14:45:10.287Z,26.04
2023-05-14T14:47:37.169Z,26.04
2023-05-14T14:50:05.405Z,26.10
2023-05-14T14:52:32.209Z,26.15
2023-05-14T14:54:59.085Z,26.21
2023-05-14T14:57:26.671Z,26.17
2023-05-14T14:59:53.424Z,26.11
2023-05-14T15:02:20.059Z,26.05
2023-05-14T15:04:46.718Z,25.98
2023-05-14T15:07:15.437Z,25.92
2023-05-14T15:09:42.440Z,25.88
2023-05-14T15:12:10.363Z,25.83
2023-05-14T15:14:36.994Z,25.78
2023-05-14T15:17:03.835Z,25.71
2023-05-14T15:19:32.027Z,25.65
2023-05-14T15:21:58.782Z,25.57
2023-05-14T15:24:25.745Z,25.53
2023-05-14T15:26:53.583Z,25.48
2023-05-14T15:29:20.901Z,25.43
2023-05-14T15:31:47.922Z,25.38
2023-05-14T15:34:14.606Z,25.32
2023-05-14T15:36:41.497Z,25.27
2023-05-14T15:39:09.691Z,25.22
2023-05-14T15:41:37.196Z,25.17
2023-05-14T15:44:04.036Z,25.12
2023-05-14T15:46:31.631Z,25.07
2023-05-14T15:48:58.296Z,25.03
2023-05-14T15:51:25.201Z,24.99
2023-05-14T15:53:53.418Z,24.95
2023-05-14T15:56:21.614Z,24.92
2023-05-14T15:58:48.824Z,24.88
2023-05-14T16:01:15.568Z,24.85
2023-05-14T16:03:42.428Z,24.81
2023-05-14T16:06:09.462Z,24.78
2023-05-14T16:08:36.020Z,24.76
2023-05-14T16:11:02.652Z,24.74
2023-05-14T16:13:29.347Z,24.71
2023-05-14T16:15:56.359Z,24.68
2023-05-14T16:18:24.521Z,24.67
2023-05-14T16:20:51.778Z,24.64
2023-05-14T16:23:18.599Z,24.63
2023-05-14T16:25:45.264Z,24.61
2023-05-14T16:28:12.284Z,24.60
2023-05-14T16:30:38.953Z,24.59
2023-05-14T16:33:05.824Z,24.57
2023-05-14T16:35:32.898Z,24.55
2023-05-14T16:37:59.534Z,24.53
2023-05-14T16:40:26.209Z,24.51
2023-05-14T16:42:53.270Z,24.48
2023-05-14T16:45:20.015Z,24.47
2023-05-14T16:47:46.576Z,24.46
2023-05-14T16:50:13.185Z,24.44
2023-05-14T16:52:39.872Z,24.42
2023-05-14T16:55:06.844Z,24.41
2023-05-14T16:57:33.934Z,24.41
2023-05-14T17:00:00.672Z,24.39
2023-05-14T17:02:27.486Z,24.38
2023-05-14T17:04:54.727Z,24.36
2023-05-14T17:07:21.343Z,24.35
2023-05-14T17:09:48.312Z,24.34
2023-05-14T17:12:14.983Z,24.32
2023-05-14T17:14:41.745Z,24.30
2023-05-14T17:17:08.603Z,24.30
2023-05-14T17:19:35.210Z,24.29
2023-05-14T17:22:05.123Z,24.29
2023-05-14T17:24:32.299Z,24.27
2023-05-14T17:26:58.823Z,24.26
2023-05-14T17:29:25.656Z,24.26
2023-05-14T17:31:52.510Z,24.24
2023-05-14T17:34:19.592Z,24.24
2023-05-14T17:36:46.262Z,24.24
2023-05-14T17:39:12.777Z,24.23
2023-05-14T17:41:41.324Z,24.22
2023-05-14T17:44:08.404Z,24.21
2023-05-14T17:46:35.262Z,24.21
2023-05-14T17:49:01.932Z,24.19
2023-05-14T17:51:28.666Z,24.19
2023-05-14T17:53:55.668Z,24.19
2023-05-14T17:56:22.193Z,24.18
2023-05-14T17:58:48.801Z,24.17
2023-05-14T18:01:15.718Z,24.16
2023-05-14T18:03:42.714Z,24.16
2023-05-14T18:06:09.815Z,24.15
2023-05-14T18:08:36.446Z,24.15
2023-05-14T18:11:03.169Z,24.14
2023-05-14T18:13:29.897Z,24.12
2023-05-14T18:15:56.980Z,24.12
2023-05-14T18:18:23.599Z,24.11
2023-05-14T18:20:51.366Z,24.11
2023-05-14T18:23:18.001Z,24.10
2023-05-14T18:25:44.867Z,24.10
2023-05-14T18:28:11.555Z,24.10
2023-05-14T18:30:38.537Z,24.09
2023-05-14T18:33:05.229Z,24.08
2023-05-14T18:35:31.766Z,24.08
2023-05-14T18:37:58.281Z,24.07
2023-05-14T18:40:25.321Z,24.06
2023-05-14T18:42:51.889Z,24.06
2023-05-14T18:45:18.764Z,24.05
2023-05-14T18:47:45.623Z,24.04
2023-05-14T18:50:12.276Z,24.04
2023-05-14T18:52:38.887Z,24.03
2023-05-14T18:55:05.726Z,24.03
2023-05-14T18:57:32.410Z,24.02
2023-05-14T19:00:02.464Z,24.02
2023-05-14T19:02:29.482Z,24.02
2023-05-14T19:04:56.624Z,24.01
2023-05-14T19:07:23.286Z,24.01
2023-05-14T19:09:50.145Z,24.00
2023-05-14T19:12:16.653Z,24.00
2023-05-14T19:14:43.221Z,23.99
2023-05-14T19:17:10.421Z,23.98
2023-05-14T19:19:38.547Z,23.98
2023-05-14T19:22:06.216Z,23.98
2023-05-14T19:24:32.871Z,23.97
2023-05-14T19:26:59.421Z,23.96
2023-05-14T19:29:26.301Z,23.96
2023-05-14T19:31:53.012Z,23.96
2023-05-14T19:34:19.902Z,23.95
2023-05-14T19:36:46.551Z,23.95
2023-05-14T19:39:13.177Z,23.95
2023-05-14T19:41:40.095Z,23.94
2023-05-14T19:44:06.808Z,23.94
2023-05-14T19:46:33.455Z,23.94
2023-05-14T19:49:00.223Z,23.92
2023-05-14T19:51:27.004Z,23.92
2023-05-14T19:53:53.659Z,23.92
2023-05-14T19:56:20.974Z,23.92
2023-05-14T19:58:47.666Z,23.92
2023-05-14T20:01:14.491Z,23.92
2023-05-14T20:03:41.277Z,23.91
2023-05-14T20:06:07.874Z,23.90
2023-05-14T20:08:35.557Z,23.90
2023-05-14T20:11:02.822Z,23.90
2023-05-14T20:13:31.447Z,23.89
2023-05-14T20:15:58.437Z,23.89
2023-05-14T20:18:25.086Z,23.88
2023-05-14T20:20:51.895Z,23.88
2023-05-14T20:23:19.464Z,23.87
2023-05-14T20:25:46.967Z,23.86
2023-05-14T20:28:14.025Z,23.85
2023-05-14T20:30:40.834Z,23.85
2023-05-14T20:33:07.753Z,23.85
2023-05-14T20:35:34.740Z,23.84
2023-05-14T20:38:03.100Z,23.84
2023-05-14T20:40:30.272Z,23.83
2023-05-14T20:42:58.174Z,23.84
2023-05-14T20:45:25.040Z,23.83
2023-05-14T20:47:52.034Z,23.82
2023-05-14T20:50:19.196Z,23.82
2023-05-14T20:52:46.015Z,23.82
2023-05-14T20:55:12.702Z,23.81
2023-05-14T20:57:40.223Z,23.81
2023-05-14T21:00:09.327Z,23.81
2023-05-14T21:02:36.936Z,23.80
2023-05-14T21:05:04.336Z,23.80
2023-05-14T21:07:31.107Z,23.79
2023-05-14T21:09:57.734Z,23.79
2023-05-14T21:12:24.327Z,23.79
2023-05-14T21:14:50.960Z,23.78
2023-05-14T21:17:17.765Z,23.78
2023-05-14T21:19:44.488Z,23.78
2023-05-14T21:22:11.905Z,23.77
2023-05-14T21:24:38.439Z,23.77
2023-05-14T21:27:05.279Z,23.76
2023-05-14T21:29:31.776Z,23.76
2023-05-14T21:31:58.637Z,23.76
2023-05-14T21:34:25.357Z,23.75
2023-05-14T21:36:52.265Z,23.75
2023-05-14T21:39:19.339Z,23.74
2023-05-14T21:41:46.406Z,23.74
2023-05-14T21:44:12.935Z,23.74
2023-05-14T21:46:40.628Z,23.74
2023-05-14T21:49:07.317Z,23.73
2023-05-14T21:51:34.136Z,23.73
2023-05-14T21:54:00.875Z,23.73
2023-05-14T21:56:27.659Z,23.73
2023-05-14T21:58:55.388Z,23.72
2023-05-14T22:01:22.034Z,23.72
2023-05-14T22:03:49.423Z,23.72
2023-05-14T22:06:16.384Z,23.71
2023-05-14T22:08:42.997Z,23.71
2023-05-14T22:11:09.807Z,23.71
2023-05-14T22:13:40.181Z,23.71
2023-05-14T22:16:12.808Z,23.70
2023-05-14T22:18:40.907Z,23.70
2023-05-14T22:21:07.649Z,23.69
2023-05-14T22:23:34.274Z,23.69
2023-05-14T22:26:01.019Z,23.68
2023-05-14T22:28:27.601Z,23.68
2023-05-14T22:30:55.892Z,23.68
2023-05-14T22:33:22.631Z,23.68
2023-05-14T22:35:49.294Z,23.69
2023-05-14T22:38:16.409Z,23.68
2023-05-14T22:40:43.033Z,23.68
2023-05-14T22:43:09.836Z,23.68
2023-05-14T22:45:36.331Z,23.67
2023-05-14T22:48:03.071Z,23.67
2023-05-14T22:50:29.821Z,23.66
2023-05-14T22:52:56.899Z,23.66
2023-05-14T22:55:23.931Z,23.66
2023-05-14T22:57:50.706Z,23.66
2023-05-14T23:00:17.674Z,23.65
2023-05-14T23:02:44.545Z,23.65
2023-05-14T23:05:11.688Z,23.65
2023-05-14T23:07:38.482Z,23.64
2023-05-14T23:10:05.888Z,23.64
2023-05-14T23:12:32.905Z,23.64
2023-05-14T23:14:59.561Z,23.64
2023-05-14T23:17:26.368Z,23.64
2023-05-14T23:19:53.089Z,23.63
2023-05-14T23:22:19.830Z,23.63
2023-05-14T23:24:46.562Z,23.63
2023-05-14T23:27:13.161Z,23.62
2023-05-14T23:29:39.908Z,23.62
2023-05-14T23:32:07.700Z,23.61
2023-05-14T23:34:34.782Z,23.61
2023-05-14T23:37:01.707Z,23.61
2023-05-14T23:39:28.367Z,23.61
2023-05-14T23:41:55.017Z,23.60
2023-05-14T23:44:21.587Z,23.60
2023-05-14T23:46:48.561Z,23.60
2023-05-14T23:49:15.317Z,23.59
2023-05-14T23:51:41.974Z,23.59
2023-05-14T23:54:08.957Z,23.57
2023-05-14T23:56:35.641Z,23.57
2023-05-14T23:59:02.986Z,23.57
